createdAt,value
2023-05-01T00:02:03.409Z,96.78
2023-05-01T00:06:06.350Z,94.64
2023-05-01T00:10:09.614Z,95.54
2023-05-01T00:14:12.527Z,91.02
2023-05-01T00:18:16.676Z,92.03
2023-05-01T00:22:19.398Z,93.42
2023-05-01T00:26:22.224Z,92.99
2023-05-01T00:30:25.233Z,92.49
2023-05-01T00:34:30.374Z,95.11
2023-05-01T00:38:33.212Z,92.84
2023-05-01T00:42:37.234Z,92.73
2023-05-01T00:46:39.957Z,95.02
2023-05-01T00:50:44.477Z,91.98
2023-05-01T00:54:52.024Z,95.70
2023-05-01T00:58:55.205Z,95.73
2023-05-01T01:02:58.448Z,94.71
2023-05-01T01:07:09.710Z,95.74
2023-05-01T01:11:16.501Z,96.57
2023-05-01T01:15:25.203Z,98.34
2023-05-01T01:19:58.476Z,97.56
2023-05-01T01:24:18.186Z,98.20
2023-05-01T01:28:56.594Z,95.31
2023-05-01T01:33:26.642Z,92.40
2023-05-01T01:37:35.471Z,94.22
2023-05-01T01:41:40.124Z,94.16
2023-05-01T01:45:44.767Z,96.21
2023-05-01T01:49:51.348Z,96.68
2023-05-01T01:53:58.416Z,97.98
2023-05-01T01:58:02.230Z,97.30
2023-05-01T02:02:06.261Z,93.00
2023-05-01T02:06:10.046Z,92.55
2023-05-01T02:10:15.022Z,92.71
2023-05-01T02:14:20.029Z,93.40
2023-05-01T02:18:23.132Z,98.50
2023-05-01T02:22:26.803Z,97.26
2023-05-01T02:26:31.846Z,97.99
2023-05-01T02:30:34.681Z,97.22
2023-05-01T02:34:37.586Z,97.70
2023-05-01T02:38:40.470Z,98.25
2023-05-01T02:42:44.914Z,97.20
2023-05-01T02:46:48.530Z,97.70
2023-05-01T02:50:51.818Z,95.98
2023-05-01T02:54:54.716Z,97.40
2023-05-01T02:58:59.288Z,98.01
2023-05-01T03:03:02.222Z,97.95
2023-05-01T03:07:05.592Z,97.04
2023-05-01T03:11:08.543Z,94.79
2023-05-01T03:15:13.405Z,92.41
2023-05-01T03:19:16.185Z,95.91
2023-05-01T03:23:19.036Z,96.25
2023-05-01T03:27:21.839Z,98.48
2023-05-01T03:31:26.005Z,96.35
2023-05-01T03:35:29.344Z,93.67
2023-05-01T03:39:32.648Z,96.90
2023-05-01T03:43:35.738Z,97.32
2023-05-01T03:47:40.144Z,97.40
2023-05-01T03:51:42.857Z,96.46
2023-05-01T03:55:45.869Z,98.80
2023-05-01T03:59:48.699Z,96.00
2023-05-01T04:03:53.336Z,98.56
2023-05-01T04:07:56.391Z,99.63
2023-05-01T04:11:59.122Z,99.10
2023-05-01T04:16:02.093Z,98.24
2023-05-01T04:20:07.406Z,99.25
2023-05-01T04:24:10.134Z,99.55
2023-05-01T04:28:13.298Z,98.80
2023-05-01T04:32:17.162Z,99.68
2023-05-01T04:36:21.301Z,97.85
2023-05-01T04:40:24.286Z,97.58
2023-05-01T04:44:27.473Z,96.83
2023-05-01T04:48:30.527Z,96.48
2023-05-01T04:52:35.968Z,98.13
2023-05-01T04:56:38.994Z,98.94
2023-05-01T05:00:41.952Z,99.10
2023-05-01T05:04:44.805Z,97.54
2023-05-01T05:08:51.971Z,99.39
2023-05-01T05:12:54.775Z,98.30
2023-05-01T05:16:57.579Z,96.28
2023-05-01T05:21:04.610Z,97.91
2023-05-01T05:25:10.092Z,96.85
2023-05-01T05:29:12.816Z,96.96
2023-05-01T05:33:15.562Z,94.31
2023-05-01T05:37:18.449Z,94.38
2023-05-01T05:41:22.949Z,95.26
2023-05-01T05:45:25.748Z,94.37
2023-05-01T05:49:28.963Z,94.97
2023-05-01T05:53:32.210Z,93.37
2023-05-01T05:57:37.708Z,93.40
2023-05-01T06:01:42.942Z,92.69
2023-05-01T06:05:45.972Z,93.46
2023-05-01T06:09:48.752Z,91.84
2023-05-01T06:13:53.066Z,89.65
2023-05-01T06:17:56.457Z,87.35
2023-05-01T06:21:59.323Z,88.32
2023-05-01T06:26:02.267Z,85.10
2023-05-01T06:30:07.951Z,80.69
2023-05-01T06:34:10.668Z,81.78
2023-05-01T06:38:13.797Z,73.68
2023-05-01T06:42:16.947Z,75.95
2023-05-01T06:46:21.756Z,79.09
2023-05-01T06:50:24.531Z,74.02
2023-05-01T06:54:27.581Z,72.73
2023-05-01T06:58:30.300Z,69.10
2023-05-01T07:02:35.249Z,71.76
2023-05-01T07:06:38.830Z,75.17
2023-05-01T07:10:42.217Z,69.87
2023-05-01T07:14:45.169Z,75.79
2023-05-01T07:18:49.637Z,75.58
2023-05-01T07:22:52.938Z,73.04
2023-05-01T07:26:56.768Z,75.70
2023-05-01T07:31:01.556Z,66.20
2023-05-01T07:35:07.208Z,68.47
2023-05-01T07:39:09.888Z,69.87
2023-05-01T07:43:12.888Z,70.24
2023-05-01T07:47:15.883Z,69.77
2023-05-01T07:51:20.326Z,62.56
2023-05-01T07:55:23.655Z,66.99
2023-05-01T07:59:26.525Z,65.70
2023-05-01T08:03:30.413Z,58.31
2023-05-01T08:07:34.767Z,60.10
2023-05-01T08:11:37.813Z,64.21
2023-05-01T08:15:42.927Z,62.60
2023-05-01T08:19:46.247Z,63.49
2023-05-01T08:23:51.288Z,58.71
2023-05-01T08:27:54.207Z,60.02
2023-05-01T08:31:57.720Z,63.95
2023-05-01T08:36:00.636Z,64.03
2023-05-01T08:40:08.810Z,59.45
2023-05-01T08:44:12.379Z,59.64
2023-05-01T08:48:18.568Z,57.89
2023-05-01T08:52:21.766Z,58.88
2023-05-01T08:56:26.768Z,55.79
2023-05-01T09:00:29.778Z,57.93
2023-05-01T09:04:33.358Z,55.27
2023-05-01T09:08:36.727Z,57.33
2023-05-01T09:12:41.103Z,55.79
2023-05-01T09:16:43.815Z,57.05
2023-05-01T09:20:46.773Z,54.28
2023-05-01T09:24:49.905Z,54.90
2023-05-01T09:28:58.087Z,56.58
2023-05-01T09:33:11.608Z,53.41
2023-05-01T09:37:16.472Z,53.10
2023-05-01T09:41:20.964Z,57.79
2023-05-01T09:45:26.520Z,51.80
2023-05-01T09:49:45.711Z,52.86
2023-05-01T09:53:48.578Z,53.67
2023-05-01T09:57:51.788Z,52.37
2023-05-01T10:01:56.955Z,53.80
2023-05-01T10:06:02.013Z,51.35
2023-05-01T10:10:18.534Z,48.68
2023-05-01T10:14:24.009Z,47.99
2023-05-01T10:18:28.987Z,49.62
2023-05-01T10:22:31.916Z,52.90
2023-05-01T10:26:35.124Z,50.40
2023-05-01T10:30:39.243Z,50.92
2023-05-01T10:34:48.673Z,51.13
2023-05-01T10:38:51.446Z,48.40
2023-05-01T10:43:25.953Z,49.50
2023-05-01T10:47:47.787Z,51.39
2023-05-01T10:52:03.660Z,48.88
2023-05-01T10:56:06.929Z,54.11
2023-05-01T11:00:14.367Z,54.55
2023-05-01T11:04:51.048Z,51.37
2023-05-01T11:08:56.080Z,53.69
2023-05-01T11:12:58.930Z,51.06
2023-05-01T11:17:01.915Z,48.62
2023-05-01T11:21:04.900Z,50.00
2023-05-01T11:25:21.059Z,48.98
2023-05-01T11:29:24.149Z,49.81
2023-05-01T11:33:27.593Z,52.29
2023-05-01T11:37:41.046Z,54.80
2023-05-01T11:41:45.979Z,54.98
2023-05-01T11:45:54.533Z,56.13
2023-05-01T11:49:57.277Z,60.41
2023-05-01T11:54:01.511Z,57.39
2023-05-01T11:58:06.276Z,60.39
2023-05-01T12:02:19.729Z,57.77
2023-05-01T12:06:22.713Z,56.04
2023-05-01T12:10:25.892Z,53.86
2023-05-01T12:14:30.786Z,52.69
2023-05-01T12:18:33.918Z,47.24
2023-05-01T12:22:36.688Z,52.06
2023-05-01T12:26:40.811Z,46.59
2023-05-01T12:30:45.946Z,55.10
2023-05-01T12:34:48.853Z,46.39
2023-05-01T12:38:57.114Z,45.30
2023-05-01T12:43:00.083Z,45.96
2023-05-01T12:47:08.796Z,46.25
2023-05-01T12:51:19.492Z,44.91
2023-05-01T12:55:22.551Z,49.36
2023-05-01T12:59:27.260Z,42.42
2023-05-01T13:03:32.253Z,47.29
2023-05-01T13:07:36.552Z,46.62
2023-05-01T13:11:39.458Z,42.99
2023-05-01T13:15:42.144Z,46.98
2023-05-01T13:19:46.549Z,49.56
2023-05-01T13:23:54.561Z,50.21
2023-05-01T13:27:57.329Z,55.00
2023-05-01T13:32:00.580Z,55.92
2023-05-01T13:36:14.209Z,51.67
2023-05-01T13:40:25.896Z,50.65
2023-05-01T13:44:29.251Z,56.36
2023-05-01T13:48:32.095Z,60.39
2023-05-01T13:52:42.251Z,63.01
2023-05-01T13:56:44.915Z,68.84
2023-05-01T14:00:47.874Z,73.16
2023-05-01T14:04:51.527Z,73.80
2023-05-01T14:08:59.901Z,73.69
2023-05-01T14:13:05.066Z,73.39
2023-05-01T14:17:08.308Z,73.21
2023-05-01T14:21:11.626Z,74.00
2023-05-01T14:25:35.419Z,73.14
2023-05-01T14:29:43.769Z,70.77
2023-05-01T14:33:47.269Z,73.81
2023-05-01T14:37:50.229Z,72.42
2023-05-01T14:41:58.273Z,66.28
2023-05-01T14:46:01.060Z,70.29
2023-05-01T14:50:04.606Z,66.11
2023-05-01T14:54:11.656Z,63.77
2023-05-01T14:58:17.536Z,65.06
2023-05-01T15:02:20.344Z,67.45
2023-05-01T15:06:24.414Z,65.86
2023-05-01T15:10:28.891Z,67.54
2023-05-01T15:14:32.941Z,61.08
2023-05-01T15:18:36.532Z,59.81
2023-05-01T15:22:40.937Z,61.20
2023-05-01T15:26:44.023Z,61.17
2023-05-01T15:30:48.521Z,62.71
2023-05-01T15:34:56.671Z,63.62
2023-05-01T15:38:59.611Z,63.99
2023-05-01T15:43:02.839Z,64.85
2023-05-01T15:47:06.894Z,63.56
2023-05-01T15:51:09.779Z,62.13
2023-05-01T15:55:13.251Z,61.17
2023-05-01T15:59:16.332Z,62.08
2023-05-01T16:03:21.015Z,65.76
2023-05-01T16:07:23.847Z,60.57
2023-05-01T16:11:26.988Z,61.77
2023-05-01T16:15:32.443Z,61.13
2023-05-01T16:19:37.586Z,64.01
2023-05-01T16:23:40.745Z,63.00
2023-05-01T16:27:44.625Z,65.69
2023-05-01T16:31:48.058Z,65.08
2023-05-01T16:35:52.236Z,64.75
2023-05-01T16:39:54.908Z,66.33
2023-05-01T16:44:00.445Z,63.75
2023-05-01T16:48:03.336Z,63.36
2023-05-01T16:52:10.733Z,62.25
2023-05-01T16:56:13.930Z,62.39
2023-05-01T17:00:17.235Z,63.08
2023-05-01T17:04:20.334Z,63.07
2023-05-01T17:08:26.044Z,66.12
2023-05-01T17:12:29.494Z,61.62
2023-05-01T17:16:40.514Z,65.62
2023-05-01T17:20:43.534Z,67.65
2023-05-01T17:24:47.949Z,67.99
2023-05-01T17:28:50.992Z,67.97
2023-05-01T17:32:54.191Z,69.79
2023-05-01T17:36:57.904Z,69.01
2023-05-01T17:41:03.736Z,70.27
2023-05-01T17:45:07.806Z,72.31
2023-05-01T17:49:10.866Z,76.30
2023-05-01T17:53:13.641Z,73.71
2023-05-01T17:57:17.853Z,76.18
2023-05-01T18:01:20.610Z,74.40
2023-05-01T18:05:23.925Z,75.17
2023-05-01T18:09:26.691Z,77.02
2023-05-01T18:13:37.944Z,75.57
2023-05-01T18:17:41.114Z,75.35
2023-05-01T18:21:44.029Z,78.65
2023-05-01T18:25:47.136Z,79.13
2023-05-01T18:29:51.532Z,75.55
2023-05-01T18:33:55.210Z,80.07
2023-05-01T18:37:57.951Z,81.65
2023-05-01T18:42:01.439Z,82.91
2023-05-01T18:46:06.132Z,81.98
2023-05-01T18:50:10.153Z,83.91
2023-05-01T18:54:13.981Z,79.48
2023-05-01T18:58:17.310Z,81.50
2023-05-01T19:02:21.629Z,80.62
2023-05-01T19:06:24.615Z,80.73
2023-05-01T19:10:28.049Z,81.93
2023-05-01T19:14:30.980Z,81.95
2023-05-01T19:18:37.728Z,78.58
2023-05-01T19:22:40.963Z,81.58
2023-05-01T19:26:43.943Z,84.17
2023-05-01T19:30:46.703Z,85.37
2023-05-01T19:34:51.004Z,82.98
2023-05-01T19:38:54.323Z,82.17
2023-05-01T19:42:57.047Z,86.56
2023-05-01T19:47:00.025Z,87.84
2023-05-01T19:51:04.793Z,88.06
2023-05-01T19:55:08.416Z,88.16
2023-05-01T19:59:11.439Z,86.44
2023-05-01T20:03:15.632Z,87.43
2023-05-01T20:07:20.365Z,88.40
2023-05-01T20:11:23.090Z,88.89
2023-05-01T20:15:25.877Z,88.88
2023-05-01T20:19:28.971Z,88.49
2023-05-01T20:23:33.208Z,89.01
2023-05-01T20:27:35.989Z,88.98
2023-05-01T20:31:38.820Z,90.95
2023-05-01T20:35:41.799Z,91.64
2023-05-01T20:39:46.169Z,91.92
2023-05-01T20:43:49.102Z,93.17
2023-05-01T20:47:51.920Z,91.44
2023-05-01T20:51:56.737Z,90.71
2023-05-01T20:56:00.925Z,89.57
2023-05-01T21:00:04.591Z,90.59
2023-05-01T21:04:08.129Z,92.77
2023-05-01T21:08:11.063Z,90.54
2023-05-01T21:12:16.008Z,94.94
2023-05-01T21:16:20.264Z,92.02
2023-05-01T21:20:31.621Z,94.73
2023-05-01T21:24:35.332Z,92.93
2023-05-01T21:28:40.252Z,92.63
2023-05-01T21:32:43.499Z,91.54
2023-05-01T21:36:46.751Z,90.75
2023-05-01T21:40:49.936Z,90.83
2023-05-01T21:44:54.356Z,93.66
2023-05-01T21:48:57.094Z,93.65
2023-05-01T21:53:00.752Z,93.54
2023-05-01T21:57:05.562Z,92.68
2023-05-01T22:01:10.605Z,91.07
2023-05-01T22:05:15.448Z,95.92
2023-05-01T22:09:18.319Z,92.81
2023-05-01T22:13:21.052Z,97.41
2023-05-01T22:17:26.264Z,94.96
2023-05-01T22:21:30.840Z,97.64
2023-05-01T22:25:33.590Z,93.07
2023-05-01T22:29:36.738Z,93.81
2023-05-01T22:33:40.878Z,94.33
2023-05-01T22:37:43.704Z,92.67
2023-05-01T22:41:46.530Z,94.42
2023-05-01T22:45:49.681Z,98.28
2023-05-01T22:49:53.885Z,95.80
2023-05-01T22:53:57.029Z,94.57
2023-05-01T22:57:59.916Z,93.69
2023-05-01T23:02:03.357Z,91.90
2023-05-01T23:06:08.111Z,96.31
2023-05-01T23:10:11.333Z,94.34
2023-05-01T23:14:14.975Z,94.28
2023-05-01T23:18:22.843Z,97.10
2023-05-01T23:22:27.079Z,98.14
2023-05-01T23:26:30.043Z,98.21
2023-05-01T23:30:33.070Z,97.26
2023-05-01T23:34:35.852Z,95.92
2023-05-01T23:38:40.380Z,97.28
2023-05-01T23:42:43.945Z,96.75
2023-05-01T23:46:46.737Z,97.79
2023-05-01T23:50:49.816Z,97.41
2023-05-01T23:54:54.396Z,94.84
2023-05-01T23:58:57.600Z,96.15
